createdAt,value
2022-10-19T00:00:47.244Z,92482.69
2022-10-19T00:03:55.334Z,92473.94
2022-10-19T00:06:58.363Z,92476.56
2022-10-19T00:10:01.550Z,92479.75
2022-10-19T00:13:04.675Z,92486.75
2022-10-19T00:16:14.147Z,92487.28
2022-10-19T00:19:21.377Z,92476.72
2022-10-19T00:22:24.397Z,92481.16
2022-10-19T00:25:27.464Z,92479.81
2022-10-19T00:28:30.877Z,92488.88
2022-10-19T00:31:34.251Z,92490.78
2022-10-19T00:34:37.399Z,92497.94
2022-10-19T00:37:40.812Z,92503.81
2022-10-19T00:40:44.600Z,92507.09
2022-10-19T00:43:58.374Z,92510.44
2022-10-19T00:47:05.643Z,92508.53
2022-10-19T00:50:09.481Z,92512.50
2022-10-19T00:53:12.903Z,92518.44
2022-10-19T00:56:17.783Z,92512.00
2022-10-19T00:59:22.619Z,92513.38
2022-10-19T01:02:25.393Z,92516.09
2022-10-19T01:05:29.548Z,92505.06
2022-10-19T01:08:33.364Z,92506.38
2022-10-19T01:11:54.961Z,92512.94
2022-10-19T01:15:07.457Z,92504.53
2022-10-19T01:18:21.734Z,92510.41
2022-10-19T01:21:38.004Z,92505.22
2022-10-19T01:25:19.221Z,92505.91
2022-10-19T01:28:50.150Z,92506.59
2022-10-19T01:32:04.714Z,92504.63
2022-10-19T01:35:18.656Z,92505.31
2022-10-19T01:38:35.875Z,92504.03
2022-10-19T01:41:57.748Z,92505.31
2022-10-19T01:45:06.039Z,92511.22
2022-10-19T01:48:31.455Z,92513.16
2022-10-19T01:51:40.075Z,92526.84
2022-10-19T01:54:50.885Z,92526.19
2022-10-19T01:58:00.866Z,92520.34
2022-10-19T02:01:08.108Z,92522.28
2022-10-19T02:04:14.013Z,92523.56
2022-10-19T02:07:17.661Z,92511.81
2022-10-19T02:10:21.737Z,92508.53
2022-10-19T02:13:27.225Z,92509.75
2022-10-19T02:16:44.160Z,92501.19
2022-10-19T02:19:47.129Z,92502.47
2022-10-19T02:22:50.596Z,92505.03
2022-10-19T02:25:54.281Z,92508.16
2022-10-19T02:28:59.600Z,92513.97
2022-10-19T02:32:03.438Z,92513.25
2022-10-19T02:35:07.081Z,92510.56
2022-10-19T02:38:12.781Z,92520.25
2022-10-19T02:41:33.820Z,92525.41
2022-10-19T02:44:54.115Z,92528.59
2022-10-19T02:48:01.893Z,92532.41
2022-10-19T02:51:05.002Z,92533.63
2022-10-19T02:54:09.234Z,92534.16
2022-10-19T02:57:24.515Z,92533.97
2022-10-19T03:00:27.613Z,92535.13
2022-10-19T03:03:30.568Z,92536.19
2022-10-19T03:06:33.631Z,92542.50
2022-10-19T03:09:40.924Z,92531.81
2022-10-19T03:12:44.024Z,92518.41
2022-10-19T03:15:48.079Z,92520.78
2022-10-19T03:18:51.972Z,92520.72
2022-10-19T03:21:55.004Z,92522.53
2022-10-19T03:24:57.978Z,92520.38
2022-10-19T03:28:01.093Z,92530.16
2022-10-19T03:31:04.230Z,92521.03
2022-10-19T03:34:07.382Z,92511.19
2022-10-19T03:37:10.805Z,92521.00
2022-10-19T03:40:13.759Z,92517.09
2022-10-19T03:43:16.835Z,92505.91
2022-10-19T03:46:20.563Z,92485.63
2022-10-19T03:49:23.622Z,92491.44
2022-10-19T03:52:26.664Z,92485.41
2022-10-19T03:55:31.283Z,92479.34
2022-10-19T03:58:36.518Z,92488.53
2022-10-19T04:01:42.220Z,92481.97
2022-10-19T04:04:45.340Z,92477.94
2022-10-19T04:07:48.391Z,92472.03
2022-10-19T04:10:51.501Z,92490.22
2022-10-19T04:13:56.145Z,92491.41
2022-10-19T04:16:59.184Z,92482.78
2022-10-19T04:20:02.299Z,92476.81
2022-10-19T04:23:05.350Z,92488.47
2022-10-19T04:26:09.177Z,92489.06
2022-10-19T04:29:12.664Z,92486.91
2022-10-19T04:32:15.690Z,92484.16
2022-10-19T04:35:18.766Z,92482.69
2022-10-19T04:38:21.871Z,92477.97
2022-10-19T04:41:25.527Z,92489.16
2022-10-19T04:44:28.503Z,92481.38
2022-10-19T04:47:31.799Z,92478.75
2022-10-19T04:50:36.283Z,92476.59
2022-10-19T04:53:42.618Z,92473.75
2022-10-19T04:56:45.295Z,92476.66
2022-10-19T04:59:48.459Z,92477.97
2022-10-19T05:02:51.515Z,92477.31
2022-10-19T05:05:54.622Z,92476.78
2022-10-19T05:08:58.339Z,92475.41
2022-10-19T05:12:01.360Z,92479.13
2022-10-19T05:15:05.232Z,92474.31
2022-10-19T05:18:08.301Z,92478.97
2022-10-19T05:21:15.657Z,92481.38
2022-10-19T05:24:18.817Z,92486.41
2022-10-19T05:27:22.830Z,92481.66
2022-10-19T05:30:25.888Z,92489.28
2022-10-19T05:33:28.906Z,92488.53
2022-10-19T05:36:37.636Z,92493.97
2022-10-19T05:39:41.004Z,92495.63
2022-10-19T05:42:44.317Z,92491.03
2022-10-19T05:45:47.330Z,92489.13
2022-10-19T05:48:50.634Z,92498.28
2022-10-19T05:51:53.836Z,92501.19
2022-10-19T05:54:59.049Z,92499.13
2022-10-19T05:58:02.157Z,92505.44
2022-10-19T06:01:05.424Z,92495.69
2022-10-19T06:04:08.890Z,92507.47
2022-10-19T06:07:13.264Z,92496.66
2022-10-19T06:10:16.543Z,92496.41
2022-10-19T06:13:20.591Z,92503.50
2022-10-19T06:16:26.362Z,92495.56
2022-10-19T06:19:29.364Z,92499.34
2022-10-19T06:22:32.472Z,92486.31
2022-10-19T06:25:36.774Z,92496.19
2022-10-19T06:28:41.909Z,92493.03
2022-10-19T06:31:46.254Z,92489.25
2022-10-19T06:34:50.855Z,92487.97
2022-10-19T06:37:58.419Z,92484.34
2022-10-19T06:41:01.983Z,92498.22
2022-10-19T06:44:05.008Z,92484.81
2022-10-19T06:47:08.001Z,92494.97
2022-10-19T06:50:12.712Z,92491.72
2022-10-19T06:53:15.893Z,92491.03
2022-10-19T06:56:19.621Z,92500.22
2022-10-19T06:59:22.693Z,92493.78
2022-10-19T07:02:25.808Z,92486.56
2022-10-19T07:05:28.881Z,92479.78
2022-10-19T07:08:33.645Z,92486.44
2022-10-19T07:11:36.874Z,92483.13
2022-10-19T07:14:40.776Z,92495.66
2022-10-19T07:17:43.767Z,92498.50
2022-10-19T07:20:55.718Z,92493.88
2022-10-19T07:23:58.960Z,92506.59
2022-10-19T07:27:01.962Z,92503.00
2022-10-19T07:30:05.362Z,92497.19
2022-10-19T07:33:08.494Z,92495.53
2022-10-19T07:36:13.700Z,92504.06
2022-10-19T07:39:20.342Z,92495.16
2022-10-19T07:42:23.395Z,92494.78
2022-10-19T07:45:26.454Z,92491.00
2022-10-19T07:48:30.015Z,92502.47
2022-10-19T07:51:33.100Z,92500.88
2022-10-19T07:54:36.426Z,92499.72
2022-10-19T07:57:41.603Z,92499.16
2022-10-19T08:00:47.036Z,92499.38
2022-10-19T08:07:15.255Z,92516.34
2022-10-19T08:10:18.306Z,92511.88
2022-10-19T08:13:21.825Z,92515.47
2022-10-19T08:16:37.299Z,92509.06
2022-10-19T08:19:43.815Z,92509.00
2022-10-19T08:22:47.422Z,92514.69
2022-10-19T08:25:51.284Z,92511.56
2022-10-19T08:28:59.407Z,92508.84
2022-10-19T08:32:02.486Z,92509.06
2022-10-19T08:35:09.994Z,92511.84
2022-10-19T08:38:14.014Z,92523.16
2022-10-19T08:41:25.799Z,92525.13
2022-10-19T08:44:37.701Z,92529.88
2022-10-19T08:47:52.582Z,92534.63
2022-10-19T08:50:57.974Z,92524.91
2022-10-19T08:54:03.582Z,92530.28
2022-10-19T08:57:26.280Z,92537.03
2022-10-19T09:00:41.435Z,92548.25
2022-10-19T09:03:56.135Z,92544.44
2022-10-19T09:07:30.376Z,92545.38
2022-10-19T09:10:37.556Z,92556.09
2022-10-19T09:14:04.365Z,92558.97
2022-10-19T09:17:17.131Z,92569.59
2022-10-19T09:20:30.354Z,92568.47
2022-10-19T09:23:48.759Z,92566.59
2022-10-19T09:26:58.337Z,92561.53
2022-10-19T09:30:08.099Z,92563.63
2022-10-19T09:33:19.903Z,92574.81
2022-10-19T09:36:39.228Z,92573.59
2022-10-19T09:39:52.446Z,92573.03
2022-10-19T09:43:00.021Z,92579.63
2022-10-19T09:46:19.517Z,92575.72
2022-10-19T09:49:42.919Z,92576.47
2022-10-19T09:53:05.925Z,92581.78
2022-10-19T09:56:18.082Z,92594.91
2022-10-19T09:59:29.201Z,92601.47
2022-10-19T10:02:34.100Z,92594.31
2022-10-19T10:05:40.318Z,92600.88
2022-10-19T10:08:53.197Z,92608.09
2022-10-19T10:12:03.381Z,92610.06
2022-10-19T10:15:08.105Z,92614.66
2022-10-19T10:18:17.888Z,92614.69
2022-10-19T10:21:37.049Z,92623.84
2022-10-19T10:24:53.013Z,92626.47
2022-10-19T10:28:03.086Z,92629.78
2022-10-19T10:31:08.810Z,92629.13
2022-10-19T10:34:45.566Z,92644.78
2022-10-19T10:37:53.903Z,92640.91
2022-10-19T10:41:30.314Z,92643.50
2022-10-19T10:44:37.199Z,92653.25
2022-10-19T10:47:40.482Z,92659.81
2022-10-19T10:50:44.673Z,92657.22
2022-10-19T10:53:48.191Z,92655.91
2022-10-19T10:57:17.140Z,92659.81
2022-10-19T11:00:24.678Z,92658.53
2022-10-19T11:03:29.901Z,92663.09
2022-10-19T11:06:39.620Z,92655.94
2022-10-19T11:10:03.482Z,92663.09
2022-10-19T11:13:12.168Z,92667.03
2022-10-19T11:16:18.569Z,92667.00
2022-10-19T11:19:26.555Z,92666.31
2022-10-19T11:22:38.789Z,92674.84
2022-10-19T11:26:20.329Z,92678.72
2022-10-19T11:29:39.251Z,92683.94
2022-10-19T11:33:03.562Z,92685.22
2022-10-19T11:36:21.741Z,92689.78
2022-10-19T11:39:36.996Z,92697.56
2022-10-19T11:43:10.433Z,92687.78
2022-10-19T11:46:21.400Z,92696.22
2022-10-19T11:49:50.639Z,92700.78
2022-10-19T11:53:05.542Z,92696.22
2022-10-19T11:56:39.336Z,92705.97
2022-10-19T12:00:33.775Z,92703.38
2022-10-19T12:04:02.211Z,92690.28
2022-10-19T12:07:11.158Z,92691.59
2022-10-19T12:10:34.785Z,92683.75
2022-10-19T12:13:45.212Z,92690.25
2022-10-19T12:16:59.979Z,92683.06
2022-10-19T12:20:26.069Z,92681.06
2022-10-19T12:23:37.329Z,92702.56
2022-10-19T12:26:42.106Z,92705.16
2022-10-19T12:29:47.168Z,92705.16
2022-10-19T12:33:11.779Z,92708.38
2022-10-19T12:36:51.184Z,92710.94
2022-10-19T12:40:00.275Z,92714.84
2022-10-19T12:43:28.537Z,92717.41
2022-10-19T12:46:49.598Z,92721.28
2022-10-19T12:49:56.862Z,92721.25
2022-10-19T12:53:00.070Z,92721.25
2022-10-19T12:56:20.598Z,92727.03
2022-10-19T12:59:28.149Z,92719.88
2022-10-19T13:02:36.248Z,92727.00
2022-10-19T13:05:40.401Z,92724.31
2022-10-19T13:08:56.087Z,92724.28
2022-10-19T13:12:17.668Z,92723.00
2022-10-19T13:15:37.779Z,92730.81
2022-10-19T13:19:06.608Z,92733.41
2022-10-19T13:22:26.526Z,92736.03
2022-10-19T13:25:34.059Z,92734.69
2022-10-19T13:28:39.694Z,92737.91
2022-10-19T13:31:42.746Z,92738.47
2022-10-19T13:34:46.974Z,92748.81
2022-10-19T13:38:17.721Z,92752.66
2022-10-19T13:41:29.384Z,92758.31
2022-10-19T13:44:36.196Z,92760.19
2022-10-19T13:47:43.385Z,92754.28
2022-10-19T13:50:59.322Z,92764.06
2022-10-19T13:54:20.968Z,92768.59
2022-10-19T13:57:54.193Z,92767.91
2022-10-19T14:01:19.556Z,92780.25
2022-10-19T14:04:40.689Z,92784.69
2022-10-19T14:08:10.495Z,92786.47
2022-10-19T14:11:19.794Z,92793.50
2022-10-19T14:14:26.038Z,92794.78
2022-10-19T14:17:34.705Z,92794.22
2022-10-19T14:20:39.630Z,92801.41
2022-10-19T14:23:43.557Z,92794.25
2022-10-19T14:26:47.723Z,92803.41
2022-10-19T14:29:54.147Z,92799.50
2022-10-19T14:33:01.268Z,92796.31
2022-10-19T14:36:08.851Z,92793.84
2022-10-19T14:39:33.665Z,92798.38
2022-10-19T14:42:42.704Z,92800.22
2022-10-19T14:45:45.734Z,92793.56
2022-10-19T14:48:51.133Z,92794.09
2022-10-19T14:52:00.242Z,92790.25
2022-10-19T14:55:16.933Z,92803.13
2022-10-19T14:58:23.095Z,92799.78
2022-10-19T15:01:26.495Z,92807.53
2022-10-19T15:04:39.392Z,92817.22
2022-10-19T15:07:44.252Z,92809.47
2022-10-19T15:10:47.605Z,92810.25
2022-10-19T15:14:16.902Z,92801.81
2022-10-19T15:17:31.918Z,92808.34
2022-10-19T15:20:49.106Z,92807.75
2022-10-19T15:24:28.592Z,92814.22
2022-10-19T15:27:36.966Z,92821.97
2022-10-19T15:30:40.015Z,92821.88
2022-10-19T15:33:51.577Z,92827.03
2022-10-19T15:37:00.242Z,92828.34
2022-10-19T15:40:14.069Z,92824.50
2022-10-19T15:43:35.716Z,92836.25
2022-10-19T15:46:48.121Z,92833.50
2022-10-19T15:50:04.005Z,92832.75
2022-10-19T15:53:07.077Z,92831.44
2022-10-19T15:56:12.460Z,92830.13
2022-10-19T15:59:21.556Z,92833.44
2022-10-19T16:02:25.810Z,92834.78
2022-10-19T16:05:29.378Z,92828.28
2022-10-19T16:08:32.529Z,92826.34
2022-10-19T16:11:36.011Z,92827.56
2022-10-19T16:14:39.380Z,92836.69
2022-10-19T16:17:50.876Z,92842.66
2022-10-19T16:20:54.164Z,92843.28
2022-10-19T16:23:57.604Z,92830.97
2022-10-19T16:27:00.680Z,92835.53
2022-10-19T16:30:04.444Z,92832.91
2022-10-19T16:33:07.483Z,92835.44
2022-10-19T16:36:10.955Z,92841.28
2022-10-19T16:39:14.004Z,92836.75
2022-10-19T16:42:17.049Z,92836.19
2022-10-19T16:45:20.024Z,92842.09
2022-10-19T16:48:24.032Z,92833.00
2022-10-19T16:51:45.433Z,92833.03
2022-10-19T16:54:48.533Z,92826.53
2022-10-19T16:57:53.289Z,92827.78
2022-10-19T17:00:56.933Z,92831.59
2022-10-19T17:04:00.371Z,92825.59
2022-10-19T17:07:03.499Z,92832.00
2022-10-19T17:10:06.931Z,92836.44
2022-10-19T17:13:09.907Z,92843.41
2022-10-19T17:16:13.982Z,92835.41
2022-10-19T17:19:17.091Z,92842.47
2022-10-19T17:22:20.101Z,92847.69
2022-10-19T17:25:24.375Z,92839.28
2022-10-19T17:28:27.845Z,92850.44
2022-10-19T17:31:31.255Z,92842.13
2022-10-19T17:34:34.295Z,92840.31
2022-10-19T17:37:37.767Z,92842.38
2022-10-19T17:40:41.080Z,92844.44
2022-10-19T17:43:46.553Z,92849.13
2022-10-19T17:46:50.018Z,92851.75
2022-10-19T17:49:53.495Z,92855.72
2022-10-19T17:52:56.634Z,92856.41
2022-10-19T17:56:04.774Z,92862.28
2022-10-19T17:59:09.527Z,92862.25
2022-10-19T18:02:12.557Z,92873.28
2022-10-19T18:05:15.682Z,92867.41
2022-10-19T18:08:18.636Z,92869.38
2022-10-19T18:11:25.375Z,92870.72
2022-10-19T18:14:28.431Z,92869.44
2022-10-19T18:17:31.453Z,92862.28
2022-10-19T18:20:34.421Z,92878.56
2022-10-19T18:23:37.665Z,92878.59
2022-10-19T18:26:40.958Z,92885.09
2022-10-19T18:29:44.429Z,92891.63
2022-10-19T18:32:51.847Z,92884.38
2022-10-19T18:35:59.159Z,92881.72
2022-10-19T18:39:04.365Z,92890.78
2022-10-19T18:42:07.347Z,92898.59
2022-10-19T18:45:10.775Z,92896.66
2022-10-19T18:48:13.787Z,92899.91
2022-10-19T18:51:20.190Z,92907.72
2022-10-19T18:54:23.318Z,92909.66
2022-10-19T18:57:30.831Z,92903.75
2022-10-19T19:00:35.607Z,92903.66
2022-10-19T19:03:40.728Z,92910.91
2022-10-19T19:06:45.117Z,92910.91
2022-10-19T19:09:48.308Z,92918.84
2022-10-19T19:12:52.162Z,92915.69
2022-10-19T19:16:00.055Z,92918.97
2022-10-19T19:19:03.364Z,92916.28
2022-10-19T19:22:08.595Z,92919.53
2022-10-19T19:25:12.047Z,92916.94
2022-10-19T19:28:16.164Z,92922.13
2022-10-19T19:31:21.033Z,92922.69
2022-10-19T19:34:23.742Z,92915.63
2022-10-19T19:37:26.813Z,92917.44
2022-10-19T19:40:29.878Z,92912.88
2022-10-19T19:43:35.439Z,92916.16
2022-10-19T19:46:39.080Z,92918.78
2022-10-19T19:49:42.047Z,92918.88
2022-10-19T19:52:45.076Z,92914.34
2022-10-19T19:55:49.027Z,92911.72
2022-10-19T19:58:56.753Z,92907.16
2022-10-19T20:01:59.811Z,92911.06
2022-10-19T20:05:02.809Z,92907.16
2022-10-19T20:08:06.129Z,92903.91
2022-10-19T20:11:14.499Z,92901.25
2022-10-19T20:14:19.411Z,92913.56
2022-10-19T20:17:24.446Z,92903.16
2022-10-19T20:20:27.563Z,92905.75
2022-10-19T20:23:31.087Z,92908.25
2022-10-19T20:26:34.413Z,92902.91
2022-10-19T20:29:37.411Z,92911.25
2022-10-19T20:32:40.595Z,92905.41
2022-10-19T20:35:43.705Z,92902.09
2022-10-19T20:38:49.164Z,92896.84
2022-10-19T20:41:52.164Z,92908.44
2022-10-19T20:44:56.047Z,92908.88
2022-10-19T20:47:59.067Z,92909.38
2022-10-19T20:51:09.757Z,92906.78
2022-10-19T20:54:13.498Z,92904.09
2022-10-19T20:57:16.472Z,92911.00
2022-10-19T21:00:19.634Z,92909.50
2022-10-19T21:03:24.389Z,92920.50
2022-10-19T21:06:29.759Z,92911.31
2022-10-19T21:09:32.846Z,92916.38
2022-10-19T21:12:36.357Z,92910.47
2022-10-19T21:15:39.796Z,92920.13
2022-10-19T21:18:43.674Z,92914.31
2022-10-19T21:21:49.669Z,92917.78
2022-10-19T21:24:52.770Z,92914.81
2022-10-19T21:27:55.877Z,92918.22
2022-10-19T21:31:04.428Z,92918.34
2022-10-19T21:34:09.913Z,92921.97
2022-10-19T21:37:12.877Z,92935.25
2022-10-19T21:40:16.015Z,92921.94
2022-10-19T21:43:19.199Z,92925.50
2022-10-19T21:46:23.128Z,92936.34
2022-10-19T21:49:26.087Z,92934.19
2022-10-19T21:52:29.216Z,92933.97
2022-10-19T21:55:35.511Z,92932.75
2022-10-19T21:58:38.462Z,92929.91
2022-10-19T22:01:42.326Z,92926.88
2022-10-19T22:04:45.379Z,92935.13
2022-10-19T22:07:48.766Z,92935.78
2022-10-19T22:10:51.953Z,92945.59
2022-10-19T22:13:59.562Z,92935.97
2022-10-19T22:17:02.556Z,92938.44
2022-10-19T22:20:06.280Z,92934.44
2022-10-19T22:23:09.374Z,92951.22
2022-10-19T22:26:17.007Z,92948.59
2022-10-19T22:29:20.437Z,92961.59
2022-10-19T22:32:23.387Z,92953.81
2022-10-19T22:35:26.407Z,92951.28
2022-10-19T22:38:30.188Z,92952.69
2022-10-19T22:41:33.213Z,92960.50
2022-10-19T22:44:36.264Z,92961.25
2022-10-19T22:47:39.363Z,92967.78
2022-10-19T22:50:42.706Z,92968.50
2022-10-19T22:53:45.690Z,92964.59
2022-10-19T22:56:48.761Z,92967.22
2022-10-19T22:59:51.774Z,92967.78
2022-10-19T23:02:54.759Z,92981.63
2022-10-19T23:05:58.141Z,92976.66
2022-10-19T23:09:01.207Z,92974.66
2022-10-19T23:12:04.395Z,92981.41
2022-10-19T23:15:08.055Z,92984.66
2022-10-19T23:18:11.334Z,92982.06
2022-10-19T23:21:15.464Z,92976.78
2022-10-19T23:24:18.515Z,92978.69
2022-10-19T23:27:21.780Z,92969.50
2022-10-19T23:30:24.817Z,92983.19
2022-10-19T23:33:27.915Z,92976.97
2022-10-19T23:36:30.894Z,92979.63
2022-10-19T23:39:33.902Z,92977.53
2022-10-19T23:42:36.949Z,92986.16
2022-10-19T23:45:40.274Z,92991.09
2022-10-19T23:48:43.707Z,92985.06
2022-10-19T23:51:46.678Z,92999.78
2022-10-19T23:54:49.643Z,92998.16
2022-10-19T23:57:52.620Z,93000.34
